createdAt,value
2019-01-27T00:01:44.672Z,15.70
2019-01-27T00:04:13.250Z,16.37
2019-01-27T00:06:41.672Z,15.20
2019-01-27T00:09:11.767Z,16.90
2019-01-27T00:11:40.166Z,15.67
2019-01-27T00:14:08.549Z,16.53
2019-01-27T00:16:37.299Z,16.87
2019-01-27T00:19:05.781Z,16.03
2019-01-27T00:21:34.195Z,15.57
2019-01-27T00:24:02.627Z,15.40
2019-01-27T00:26:32.135Z,15.53
2019-01-27T00:29:00.654Z,15.37
2019-01-27T00:31:29.093Z,15.67
2019-01-27T00:33:57.724Z,16.07
2019-01-27T00:36:26.075Z,15.30
2019-01-27T00:38:54.461Z,15.90
2019-01-27T00:41:22.954Z,15.57
2019-01-27T00:43:51.440Z,16.17
2019-01-27T00:46:19.886Z,15.43
2019-01-27T00:48:48.459Z,15.10
2019-01-27T00:51:16.942Z,14.63
2019-01-27T00:53:45.454Z,14.57
2019-01-27T00:56:13.723Z,15.30
2019-01-27T00:58:43.851Z,14.87
2019-01-27T01:01:12.396Z,15.07
2019-01-27T01:03:40.715Z,14.63
2019-01-27T01:06:09.278Z,14.97
2019-01-27T01:08:37.732Z,14.43
2019-01-27T01:11:06.520Z,14.70
2019-01-27T01:13:34.922Z,12.57
2019-01-27T01:16:03.787Z,13.63
2019-01-27T01:18:32.475Z,13.37
2019-01-27T01:21:00.953Z,12.57
2019-01-27T01:23:29.433Z,14.17
2019-01-27T01:25:58.118Z,11.70
2019-01-27T01:28:26.701Z,12.47
2019-01-27T01:30:55.188Z,11.00
2019-01-27T01:33:23.661Z,12.00
2019-01-27T01:35:52.251Z,12.03
2019-01-27T01:38:20.739Z,12.70
2019-01-27T01:40:49.346Z,11.67
2019-01-27T01:43:17.608Z,11.37
2019-01-27T01:45:46.269Z,12.23
2019-01-27T01:48:14.780Z,11.43
2019-01-27T01:50:43.060Z,12.60
2019-01-27T01:53:11.629Z,13.13
2019-01-27T01:55:40.563Z,12.23
2019-01-27T01:58:08.977Z,12.33
2019-01-27T02:00:37.458Z,12.03
2019-01-27T02:03:05.979Z,10.80
2019-01-27T02:05:34.623Z,11.40
2019-01-27T02:08:03.140Z,11.10
2019-01-27T02:10:31.518Z,12.13
2019-01-27T02:13:00.372Z,13.03
2019-01-27T02:16:07.459Z,12.20
2019-01-27T02:18:37.210Z,11.20
2019-01-27T02:21:06.513Z,12.07
2019-01-27T02:23:35.159Z,12.43
2019-01-27T02:26:05.679Z,10.73
2019-01-27T02:28:34.364Z,12.63
2019-01-27T02:31:03.153Z,11.27
2019-01-27T02:33:31.670Z,11.13
2019-01-27T02:36:00.217Z,11.73
2019-01-27T02:38:28.901Z,12.13
2019-01-27T02:40:57.381Z,11.87
2019-01-27T02:43:26.070Z,10.53
2019-01-27T02:45:54.547Z,10.30
2019-01-27T02:48:23.153Z,10.80
2019-01-27T02:50:52.224Z,9.93
2019-01-27T02:53:20.806Z,9.83
2019-01-27T02:55:49.813Z,10.43
2019-01-27T02:58:18.216Z,9.77
2019-01-27T03:00:47.069Z,10.70
2019-01-27T03:03:15.854Z,9.50
2019-01-27T03:06:05.529Z,9.93
2019-01-27T03:08:59.303Z,10.10
2019-01-27T03:11:29.496Z,9.73
2019-01-27T03:13:57.909Z,9.87
2019-01-27T03:16:26.413Z,9.90
2019-01-27T03:18:55.071Z,8.47
2019-01-27T03:21:23.683Z,9.13
2019-01-27T03:23:52.337Z,9.33
2019-01-27T03:26:21.025Z,9.43
2019-01-27T03:28:49.399Z,9.83
2019-01-27T03:31:17.860Z,9.70
2019-01-27T03:33:46.456Z,9.07
2019-01-27T03:36:14.945Z,9.40
2019-01-27T03:38:43.383Z,9.17
2019-01-27T03:41:12.317Z,9.57
2019-01-27T03:43:40.998Z,9.57
2019-01-27T03:46:09.418Z,9.20
2019-01-27T03:48:37.959Z,9.53
2019-01-27T03:51:06.165Z,9.70
2019-01-27T03:53:34.613Z,9.17
2019-01-27T03:56:03.546Z,9.00
2019-01-27T03:58:31.922Z,8.90
2019-01-27T04:01:00.284Z,8.73
2019-01-27T04:03:28.745Z,8.53
2019-01-27T04:05:57.424Z,8.30
2019-01-27T04:08:26.006Z,7.93
2019-01-27T04:10:54.420Z,8.97
2019-01-27T04:13:22.925Z,7.63
2019-01-27T04:15:51.449Z,7.57
2019-01-27T04:18:19.885Z,7.33
2019-01-27T04:20:48.409Z,8.00
2019-01-27T04:23:17.094Z,7.40
2019-01-27T04:25:45.438Z,7.07
2019-01-27T04:28:13.668Z,7.27
2019-01-27T04:30:42.058Z,7.00
2019-01-27T04:33:10.503Z,6.77
2019-01-27T04:35:39.301Z,6.97
2019-01-27T04:38:07.610Z,6.97
2019-01-27T04:40:36.074Z,6.47
2019-01-27T04:43:04.549Z,6.67
2019-01-27T04:45:34.934Z,5.70
2019-01-27T04:48:03.627Z,6.20
2019-01-27T04:50:32.035Z,6.80
2019-01-27T04:53:00.342Z,5.93
2019-01-27T04:55:28.771Z,6.43
2019-01-27T04:57:57.090Z,5.87
2019-01-27T05:00:25.827Z,6.60
2019-01-27T05:03:03.022Z,6.27
2019-01-27T05:05:31.316Z,5.57
2019-01-27T05:07:59.698Z,6.53
2019-01-27T05:10:28.049Z,6.10
2019-01-27T05:12:56.461Z,5.77
2019-01-27T05:15:25.869Z,5.53
2019-01-27T05:17:54.585Z,5.40
2019-01-27T05:20:22.993Z,5.53
2019-01-27T05:22:51.576Z,5.40
2019-01-27T05:25:20.114Z,5.10
2019-01-27T05:27:48.472Z,5.77
2019-01-27T05:30:18.490Z,5.90
2019-01-27T05:32:46.934Z,23.57
2019-01-27T05:35:15.435Z,7.27
2019-01-27T05:37:43.705Z,5.50
2019-01-27T05:40:12.961Z,5.53
2019-01-27T05:42:41.474Z,4.90
2019-01-27T05:45:11.548Z,5.33
2019-01-27T05:47:40.315Z,5.50
2019-01-27T05:50:10.323Z,5.00
2019-01-27T05:52:38.884Z,4.70
2019-01-27T05:55:07.990Z,5.27
2019-01-27T05:57:36.269Z,4.60
2019-01-27T06:00:07.404Z,5.30
2019-01-27T06:02:35.972Z,5.57
2019-01-27T06:05:04.971Z,5.80
2019-01-27T06:07:33.255Z,6.27
2019-01-27T06:10:01.715Z,7.00
2019-01-27T06:12:30.196Z,7.53
2019-01-27T06:14:58.604Z,8.53
2019-01-27T06:17:27.033Z,10.93
2019-01-27T06:19:55.261Z,9.70
2019-01-27T06:22:23.671Z,7.13
2019-01-27T06:24:52.033Z,5.90
2019-01-27T06:27:20.359Z,6.10
2019-01-27T06:29:48.942Z,7.00
2019-01-27T06:32:35.446Z,5.97
2019-01-27T06:35:04.232Z,5.43
2019-01-27T06:37:32.670Z,5.85
2019-01-27T06:40:01.248Z,5.40
2019-01-27T06:42:29.674Z,5.47
2019-01-27T06:44:58.087Z,5.90
2019-01-27T06:47:27.760Z,6.43
2019-01-27T06:49:56.138Z,6.60
2019-01-27T06:52:24.517Z,6.27
2019-01-27T06:54:53.060Z,6.57
2019-01-27T06:57:21.516Z,6.67
2019-01-27T06:59:56.984Z,6.20
2019-01-27T07:02:32.671Z,6.90
2019-01-27T07:05:19.279Z,8.73
2019-01-27T07:08:06.427Z,16.53
2019-01-27T07:10:54.331Z,18.40
2019-01-27T07:13:40.636Z,17.63
2019-01-27T07:16:37.511Z,17.77
2019-01-27T07:19:31.290Z,16.97
2019-01-27T07:22:18.059Z,18.77
2019-01-27T07:25:05.819Z,20.33
2019-01-27T07:27:56.701Z,19.83
2019-01-27T07:30:42.991Z,19.17
2019-01-27T07:33:29.495Z,18.10
2019-01-27T07:36:29.208Z,17.43
2019-01-27T07:39:25.952Z,19.20
2019-01-27T07:42:32.010Z,17.83
2019-01-27T07:45:07.250Z,20.07
2019-01-27T07:47:50.302Z,15.27
2019-01-27T07:50:39.130Z,15.07
2019-01-27T07:53:32.902Z,15.05
2019-01-27T07:56:19.916Z,14.17
2019-01-27T07:58:55.565Z,12.97
2019-01-27T08:01:40.738Z,13.10
2019-01-27T08:04:40.901Z,12.30
2019-01-27T08:07:28.795Z,13.03
2019-01-27T08:10:14.070Z,12.63
2019-01-27T08:13:05.077Z,11.33
2019-01-27T08:15:51.595Z,12.13
2019-01-27T08:18:37.373Z,13.47
2019-01-27T08:21:15.430Z,14.83
2019-01-27T08:24:13.353Z,13.40
2019-01-27T08:26:53.292Z,14.87
2019-01-27T08:29:40.205Z,18.30
2019-01-27T08:32:39.813Z,16.83
2019-01-27T08:35:39.629Z,17.37
2019-01-27T08:38:17.430Z,19.17
2019-01-27T08:41:01.474Z,18.47
2019-01-27T08:43:55.286Z,18.63
2019-01-27T08:46:37.449Z,20.30
2019-01-27T08:49:05.929Z,23.70
2019-01-27T08:51:34.248Z,22.07
2019-01-27T08:54:02.882Z,19.23
2019-01-27T08:56:31.370Z,18.03
2019-01-27T08:58:59.850Z,17.77
2019-01-27T09:01:49.445Z,13.47
2019-01-27T09:04:30.727Z,12.13
2019-01-27T09:07:05.403Z,10.53
2019-01-27T09:10:02.174Z,8.17
2019-01-27T09:12:53.081Z,6.80
2019-01-27T09:15:50.334Z,6.37
2019-01-27T09:18:53.427Z,6.33
2019-01-27T09:21:31.673Z,5.90
2019-01-27T09:24:27.189Z,5.03
2019-01-27T09:27:09.253Z,6.50
2019-01-27T09:29:44.523Z,4.43
2019-01-27T09:32:32.218Z,5.93
2019-01-27T09:35:21.281Z,6.73
2019-01-27T09:38:12.969Z,9.10
2019-01-27T09:41:01.146Z,9.10
2019-01-27T09:43:47.794Z,7.37
2019-01-27T09:46:38.351Z,7.80
2019-01-27T09:49:44.926Z,5.97
2019-01-27T09:52:18.978Z,5.57
2019-01-27T09:55:15.614Z,6.43
2019-01-27T09:58:11.498Z,5.40
2019-01-27T10:00:50.733Z,5.53
2019-01-27T10:03:38.565Z,5.30
2019-01-27T10:06:41.760Z,5.07
2019-01-27T10:09:33.483Z,5.03
2019-01-27T10:12:10.053Z,5.13
2019-01-27T10:14:47.892Z,4.83
2019-01-27T10:17:32.513Z,4.67
2019-01-27T10:20:32.256Z,4.13
2019-01-27T10:23:19.377Z,3.90
2019-01-27T10:26:19.160Z,5.07
2019-01-27T10:29:10.590Z,4.70
2019-01-27T10:31:48.682Z,5.30
2019-01-27T10:34:39.106Z,4.17
2019-01-27T10:37:21.480Z,4.10
2019-01-27T10:40:11.367Z,3.57
2019-01-27T10:42:58.284Z,3.27
2019-01-27T10:45:34.946Z,4.40
2019-01-27T10:48:20.221Z,4.57
2019-01-27T10:51:13.893Z,4.57
2019-01-27T10:53:54.149Z,4.50
2019-01-27T10:56:47.717Z,3.67
2019-01-27T10:59:34.630Z,3.83
2019-01-27T11:02:36.721Z,3.95
2019-01-27T11:05:26.687Z,4.25
2019-01-27T11:08:26.499Z,4.67
2019-01-27T11:11:14.228Z,5.00
2019-01-27T11:14:09.434Z,5.40
2019-01-27T11:17:15.616Z,4.83
2019-01-27T11:19:56.980Z,4.40
2019-01-27T11:22:44.814Z,4.37
2019-01-27T11:25:31.323Z,4.70
2019-01-27T11:28:22.326Z,5.97
2019-01-27T11:31:13.026Z,4.67
2019-01-27T11:33:51.645Z,5.07
2019-01-27T11:36:39.478Z,5.17
2019-01-27T11:39:26.495Z,5.07
2019-01-27T11:42:17.605Z,4.80
2019-01-27T11:45:00.425Z,4.30
2019-01-27T11:47:44.091Z,3.73
2019-01-27T11:50:17.070Z,4.60
2019-01-27T11:52:50.149Z,6.30
2019-01-27T11:55:18.826Z,4.93
2019-01-27T11:57:47.288Z,4.90
2019-01-27T12:00:18.851Z,4.50
2019-01-27T12:02:47.538Z,6.13
2019-01-27T12:05:15.848Z,5.60
2019-01-27T12:07:44.225Z,4.37
2019-01-27T12:10:14.231Z,4.40
2019-01-27T12:12:42.716Z,4.63
2019-01-27T12:15:15.199Z,4.57
2019-01-27T12:17:43.644Z,4.90
2019-01-27T12:20:12.365Z,5.40
2019-01-27T12:22:40.808Z,4.00
2019-01-27T12:25:10.228Z,4.10
2019-01-27T12:27:38.691Z,3.00
2019-01-27T12:30:10.561Z,4.10
2019-01-27T12:32:39.174Z,3.23
2019-01-27T12:35:08.123Z,3.07
2019-01-27T12:37:36.532Z,3.47
2019-01-27T12:40:06.594Z,3.30
2019-01-27T12:42:34.815Z,3.30
2019-01-27T12:45:03.681Z,3.00
2019-01-27T12:47:32.064Z,2.90
2019-01-27T12:50:00.379Z,2.43
2019-01-27T12:52:28.647Z,2.60
2019-01-27T12:54:57.015Z,3.43
2019-01-27T12:57:25.514Z,3.73
2019-01-27T12:59:53.976Z,3.67
2019-01-27T13:02:22.538Z,2.43
2019-01-27T13:04:50.732Z,2.80
2019-01-27T13:07:19.184Z,3.03
2019-01-27T13:09:47.552Z,2.43
2019-01-27T13:12:16.352Z,2.33
2019-01-27T13:14:44.763Z,2.47
2019-01-27T13:17:14.140Z,2.10
2019-01-27T13:19:42.453Z,3.10
2019-01-27T13:22:12.393Z,2.90
2019-01-27T13:24:40.970Z,3.40
2019-01-27T13:27:09.303Z,3.60
2019-01-27T13:29:37.967Z,2.77
2019-01-27T13:32:06.453Z,3.60
2019-01-27T13:34:34.982Z,4.20
2019-01-27T13:37:03.424Z,4.70
2019-01-27T13:39:31.784Z,4.77
2019-01-27T13:42:00.079Z,3.50
2019-01-27T13:44:28.645Z,3.73
2019-01-27T13:46:57.226Z,3.83
2019-01-27T13:49:25.634Z,4.43
2019-01-27T13:51:53.870Z,3.60
2019-01-27T13:54:22.461Z,3.40
2019-01-27T13:56:50.977Z,3.50
2019-01-27T13:59:19.274Z,3.40
2019-01-27T14:01:47.597Z,3.70
2019-01-27T14:04:16.007Z,3.40
2019-01-27T14:06:44.484Z,3.00
2019-01-27T14:09:13.084Z,4.00
2019-01-27T14:11:41.448Z,4.10
2019-01-27T14:14:09.997Z,5.20
2019-01-27T14:16:38.931Z,3.60
2019-01-27T14:19:07.201Z,3.37
2019-01-27T14:21:37.729Z,3.40
2019-01-27T14:24:06.225Z,3.83
2019-01-27T14:26:34.860Z,4.67
2019-01-27T14:29:03.991Z,4.53
2019-01-27T14:31:32.367Z,5.93
2019-01-27T14:34:00.642Z,5.00
2019-01-27T14:36:29.047Z,4.67
2019-01-27T14:38:57.507Z,5.80
2019-01-27T14:41:26.049Z,8.50
2019-01-27T14:43:54.756Z,8.03
2019-01-27T14:46:23.231Z,9.03
2019-01-27T14:48:51.693Z,10.57
2019-01-27T14:51:20.207Z,10.73
2019-01-27T14:53:48.568Z,8.07
2019-01-27T14:56:17.062Z,7.30
2019-01-27T14:58:45.400Z,6.23
2019-01-27T15:01:13.672Z,5.70
2019-01-27T15:03:42.272Z,5.90
2019-01-27T15:06:10.888Z,5.60
2019-01-27T15:08:39.538Z,4.33
2019-01-27T15:11:08.154Z,5.30
2019-01-27T15:13:36.532Z,6.43
2019-01-27T15:16:05.032Z,6.47
2019-01-27T15:18:35.238Z,5.30
2019-01-27T15:21:19.586Z,5.90
2019-01-27T15:23:48.030Z,5.80
2019-01-27T15:26:16.647Z,6.70
2019-01-27T15:28:45.239Z,6.53
2019-01-27T15:31:13.492Z,6.43
2019-01-27T15:33:42.054Z,6.13
2019-01-27T15:36:10.667Z,6.53
2019-01-27T15:38:39.054Z,6.57
2019-01-27T15:41:07.704Z,6.50
2019-01-27T15:43:36.231Z,6.57
2019-01-27T15:46:05.002Z,6.33
2019-01-27T15:48:33.306Z,6.43
2019-01-27T15:51:01.891Z,6.33
2019-01-27T15:53:30.234Z,7.43
2019-01-27T15:55:58.581Z,6.73
2019-01-27T15:58:27.292Z,7.43
2019-01-27T16:00:56.046Z,8.20
2019-01-27T16:03:24.455Z,8.13
2019-01-27T16:05:52.912Z,6.60
2019-01-27T16:08:21.108Z,6.20
2019-01-27T16:10:53.171Z,6.23
2019-01-27T16:13:21.851Z,5.60
2019-01-27T16:15:50.242Z,6.37
2019-01-27T16:18:18.610Z,6.00
2019-01-27T16:20:47.073Z,6.40
2019-01-27T16:23:20.163Z,7.00
2019-01-27T16:25:48.667Z,6.97
2019-01-27T16:28:17.054Z,6.93
2019-01-27T16:31:10.690Z,6.97
2019-01-27T16:34:04.564Z,7.90
2019-01-27T16:36:33.178Z,9.23
2019-01-27T16:39:01.542Z,9.30
2019-01-27T16:41:29.951Z,9.73
2019-01-27T16:44:16.714Z,9.63
2019-01-27T16:46:45.228Z,9.63
2019-01-27T16:49:13.505Z,9.40
2019-01-27T16:51:48.783Z,10.63
2019-01-27T16:54:12.315Z,10.60
2019-01-27T16:56:40.593Z,9.77
2019-01-27T16:59:09.206Z,9.57
2019-01-27T17:01:37.432Z,10.00
2019-01-27T17:04:05.989Z,9.60
2019-01-27T17:06:34.470Z,9.23
2019-01-27T17:09:05.308Z,7.77
2019-01-27T17:11:33.828Z,8.20
2019-01-27T17:14:02.239Z,9.00
2019-01-27T17:16:30.748Z,10.00
2019-01-27T17:18:59.330Z,9.23
2019-01-27T17:21:27.697Z,9.97
2019-01-27T17:23:56.314Z,6.87
2019-01-27T17:26:24.715Z,9.33
2019-01-27T17:28:53.251Z,10.03
2019-01-27T17:31:21.675Z,10.80
2019-01-27T17:33:49.800Z,12.07
2019-01-27T17:36:18.635Z,14.60
2019-01-27T17:38:48.621Z,12.47
2019-01-27T17:41:17.090Z,11.93
2019-01-27T17:43:45.490Z,18.73
2019-01-27T17:46:13.837Z,11.90
2019-01-27T17:48:42.324Z,10.90
2019-01-27T17:51:10.488Z,10.60
2019-01-27T17:53:47.069Z,11.77
2019-01-27T17:56:15.369Z,10.50
2019-01-27T17:59:11.021Z,11.23
2019-01-27T18:02:07.001Z,12.80
2019-01-27T18:04:53.522Z,11.50
2019-01-27T18:07:39.889Z,13.40
2019-01-27T18:10:39.604Z,12.77
2019-01-27T18:13:14.943Z,26.27
2019-01-27T18:15:44.619Z,15.57
2019-01-27T18:18:13.133Z,15.83
2019-01-27T18:20:41.553Z,16.83
2019-01-27T18:23:10.049Z,16.33
2019-01-27T18:25:38.471Z,15.10
2019-01-27T18:28:06.893Z,17.07
2019-01-27T18:30:35.432Z,14.90
2019-01-27T18:33:04.118Z,14.90
2019-01-27T18:35:32.591Z,16.93
2019-01-27T18:38:01.205Z,16.33
2019-01-27T18:40:29.580Z,14.70
2019-01-27T18:42:57.890Z,15.03
2019-01-27T18:45:26.067Z,15.93
2019-01-27T18:47:54.368Z,15.30
2019-01-27T18:50:22.574Z,15.30
2019-01-27T18:52:59.128Z,15.30
2019-01-27T18:55:52.859Z,11.37
2019-01-27T18:58:41.760Z,11.73
2019-01-27T19:01:41.164Z,10.67
2019-01-27T19:04:25.826Z,13.43
2019-01-27T19:07:16.422Z,11.13
2019-01-27T19:10:13.372Z,13.23
2019-01-27T19:13:06.837Z,12.23
2019-01-27T19:16:11.373Z,10.73
2019-01-27T19:19:04.315Z,11.53
2019-01-27T19:21:41.092Z,11.17
2019-01-27T19:24:37.833Z,10.77
2019-01-27T19:27:24.647Z,10.67
2019-01-27T19:30:02.582Z,11.93
2019-01-27T19:32:45.162Z,11.70
2019-01-27T19:35:30.020Z,8.73
2019-01-27T19:38:26.763Z,12.37
2019-01-27T19:41:08.666Z,10.97
2019-01-27T19:43:47.282Z,9.67
2019-01-27T19:46:34.601Z,10.40
2019-01-27T19:49:11.695Z,14.03
2019-01-27T19:52:09.257Z,12.83
2019-01-27T19:55:01.174Z,11.87
2019-01-27T19:57:52.814Z,10.93
2019-01-27T20:00:47.974Z,11.77
2019-01-27T20:03:27.665Z,13.03
2019-01-27T20:06:27.562Z,12.17
2019-01-27T20:09:18.067Z,11.17
2019-01-27T20:12:08.862Z,12.10
2019-01-27T20:15:11.654Z,9.93
2019-01-27T20:18:03.256Z,8.70
2019-01-27T20:20:49.888Z,8.67
2019-01-27T20:23:33.759Z,8.30
2019-01-27T20:26:07.022Z,9.40
2019-01-27T20:29:02.012Z,8.50
2019-01-27T20:31:49.966Z,8.70
2019-01-27T20:34:41.775Z,7.53
2019-01-27T20:37:21.314Z,8.60
2019-01-27T20:39:58.502Z,8.43
2019-01-27T20:42:40.323Z,9.53
2019-01-27T20:45:28.979Z,8.33
2019-01-27T20:48:08.149Z,8.43
2019-01-27T20:50:57.712Z,8.50
2019-01-27T20:53:32.595Z,9.57
2019-01-27T20:56:22.257Z,8.97
2019-01-27T20:59:03.230Z,7.83
2019-01-27T21:01:56.500Z,8.70
2019-01-27T21:04:48.012Z,8.17
2019-01-27T21:07:46.598Z,7.70
2019-01-27T21:10:37.196Z,8.23
2019-01-27T21:13:27.977Z,9.30
2019-01-27T21:16:32.632Z,9.47
2019-01-27T21:19:07.807Z,9.07
2019-01-27T21:21:37.644Z,11.77
2019-01-27T21:24:06.515Z,13.07
2019-01-27T21:26:35.604Z,11.47
2019-01-27T21:29:04.381Z,10.43
2019-01-27T21:31:33.400Z,11.07
2019-01-27T21:34:01.951Z,12.70
2019-01-27T21:36:30.325Z,11.00
2019-01-27T21:38:58.629Z,10.10
2019-01-27T21:41:27.095Z,10.73
2019-01-27T21:43:55.456Z,10.07
2019-01-27T21:46:23.740Z,10.70
2019-01-27T21:48:52.397Z,9.93
2019-01-27T21:51:21.992Z,7.47
2019-01-27T21:53:50.590Z,8.00
2019-01-27T21:56:19.379Z,7.33
2019-01-27T21:58:47.751Z,8.83
2019-01-27T22:01:15.962Z,8.70
2019-01-27T22:03:44.453Z,8.00
2019-01-27T22:06:12.921Z,8.37
2019-01-27T22:08:41.289Z,8.17
2019-01-27T22:11:10.003Z,8.27
2019-01-27T22:13:41.220Z,7.57
2019-01-27T22:16:09.409Z,8.50
2019-01-27T22:18:37.833Z,7.47
2019-01-27T22:21:06.157Z,7.43
2019-01-27T22:23:34.607Z,8.37
2019-01-27T22:26:03.289Z,7.50
2019-01-27T22:28:31.872Z,7.73
2019-01-27T22:31:00.557Z,8.50
2019-01-27T22:33:29.280Z,8.30
2019-01-27T22:35:57.759Z,7.03
2019-01-27T22:38:26.408Z,7.00
2019-01-27T22:40:54.994Z,7.60
2019-01-27T22:43:23.405Z,7.03
2019-01-27T22:45:51.772Z,7.67
2019-01-27T22:48:20.330Z,5.80
2019-01-27T22:50:49.039Z,6.60
2019-01-27T22:53:17.496Z,6.80
2019-01-27T22:55:46.192Z,6.27
2019-01-27T22:58:14.597Z,6.33
2019-01-27T23:01:00.554Z,5.80
2019-01-27T23:03:49.389Z,6.53
2019-01-27T23:06:19.873Z,6.00
2019-01-27T23:08:48.314Z,5.90
2019-01-27T23:11:16.739Z,6.40
2019-01-27T23:13:45.292Z,6.10
2019-01-27T23:16:13.857Z,6.07
2019-01-27T23:18:42.271Z,6.33
2019-01-27T23:21:10.611Z,4.90
2019-01-27T23:23:39.227Z,5.27
2019-01-27T23:26:07.608Z,6.23
2019-01-27T23:28:36.071Z,6.27
2019-01-27T23:31:04.548Z,6.57
2019-01-27T23:33:32.830Z,6.10
2019-01-27T23:36:01.496Z,6.50
2019-01-27T23:38:30.078Z,5.93
2019-01-27T23:40:58.817Z,5.40
2019-01-27T23:43:27.552Z,6.03
2019-01-27T23:45:55.878Z,6.53
2019-01-27T23:48:42.636Z,5.57
2019-01-27T23:51:11.045Z,4.60
2019-01-27T23:53:40.347Z,5.33
2019-01-27T23:56:08.799Z,5.87
2019-01-27T23:58:37.519Z,5.77
